sensor_id;sensor_type;location;lat;lon;timestamp;pressure;altitude;pressure_sealevel;temperature;humidity
20955;BME280;10636;19.390;-99.256;2023-03-04T00:00:04;77213.88;;;27.62;16.29
20955;BME280;10636;19.390;-99.256;2023-03-04T00:02:32;77205.75;;;27.60;16.45
20955;BME280;10636;19.390;-99.256;2023-03-04T00:05:01;77198.22;;;27.52;16.49
20955;BME280;10636;19.390;-99.256;2023-03-04T00:07:32;77213.16;;;27.59;16.55
20955;BME280;10636;19.390;-99.256;2023-03-04T00:10:01;77202.88;;;27.50;16.30
20955;BME280;10636;19.390;-99.256;2023-03-04T00:12:29;77202.88;;;27.50;17.27
20955;BME280;10636;19.390;-99.256;2023-03-04T00:14:58;77215.13;;;27.57;17.24
20955;BME280;10636;19.390;-99.256;2023-03-04T00:17:26;77224.59;;;27.58;17.13
20955;BME280;10636;19.390;-99.256;2023-03-04T00:19:56;77224.53;;;27.56;17.44
20955;BME280;10636;19.390;-99.256;2023-03-04T00:22:25;77223.19;;;27.57;17.61
20955;BME280;10636;19.390;-99.256;2023-03-04T00:24:55;77232.63;;;27.56;17.52
20955;BME280;10636;19.390;-99.256;2023-03-04T00:27:24;77224.44;;;27.50;17.84
20955;BME280;10636;19.390;-99.256;2023-03-04T00:29:53;77232.53;;;27.52;17.74
20955;BME280;10636;19.390;-99.256;2023-03-04T00:32:21;77228.38;;;27.45;17.73
20955;BME280;10636;19.390;-99.256;2023-03-04T00:34:50;77241.28;;;27.50;17.70
20955;BME280;10636;19.390;-99.256;2023-03-04T00:37:19;77248.66;;;27.50;17.86
20955;BME280;10636;19.390;-99.256;2023-03-04T00:39:47;77254.03;;;27.48;17.89
20955;BME280;10636;19.390;-99.256;2023-03-04T00:42:23;77252.63;;;27.45;18.23
20955;BME280;10636;19.390;-99.256;2023-03-04T00:44:52;77257.31;;;27.44;18.29
20955;BME280;10636;19.390;-99.256;2023-03-04T00:47:24;77261.28;;;27.41;18.25
20955;BME280;10636;19.390;-99.256;2023-03-04T00:49:57;77234.69;;;27.21;18.44
20955;BME280;10636;19.390;-99.256;2023-03-04T00:52:26;77267.97;;;27.38;18.73
20955;BME280;10636;19.390;-99.256;2023-03-04T00:54:54;77275.38;;;27.38;18.60
20955;BME280;10636;19.390;-99.256;2023-03-04T00:57:25;77268.56;;;27.34;18.71
20955;BME280;10636;19.390;-99.256;2023-03-04T00:59:54;77271.81;;;27.27;19.09
20955;BME280;10636;19.390;-99.256;2023-03-04T01:02:24;77279.94;;;27.31;18.95
20955;BME280;10636;19.390;-99.256;2023-03-04T01:04:56;77291.34;;;27.27;18.95
20955;BME280;10636;19.390;-99.256;2023-03-04T01:07:24;77288.63;;;27.27;18.90
20955;BME280;10636;19.390;-99.256;2023-03-04T01:09:53;77294.63;;;27.24;19.19
20955;BME280;10636;19.390;-99.256;2023-03-04T01:12:22;77302.00;;;27.23;19.08
20955;BME280;10636;19.390;-99.256;2023-03-04T01:14:53;77314.72;;;27.21;19.19
20955;BME280;10636;19.390;-99.256;2023-03-04T01:17:21;77311.38;;;27.20;19.47
20955;BME280;10636;19.390;-99.256;2023-03-04T01:19:50;77318.06;;;27.19;19.41
20955;BME280;10636;19.390;-99.256;2023-03-04T01:22:19;77319.38;;;27.16;19.46
20955;BME280;10636;19.390;-99.256;2023-03-04T01:24:47;77326.03;;;27.13;19.46
20955;BME280;10636;19.390;-99.256;2023-03-04T01:27:16;77328.69;;;27.11;19.67
20955;BME280;10636;19.390;-99.256;2023-03-04T01:29:53;77335.34;;;27.08;19.65
20955;BME280;10636;19.390;-99.256;2023-03-04T01:32:22;77336.59;;;27.05;19.96
20955;BME280;10636;19.390;-99.256;2023-03-04T01:34:50;77333.88;;;27.03;19.64
20955;BME280;10636;19.390;-99.256;2023-03-04T01:37:19;77336.47;;;26.99;19.77
20955;BME280;10636;19.390;-99.256;2023-03-04T01:39:48;77340.47;;;26.98;19.97
20955;BME280;10636;19.390;-99.256;2023-03-04T01:42:18;77345.84;;;26.96;19.95
20955;BME280;10636;19.390;-99.256;2023-03-04T01:44:48;77349.75;;;26.91;20.08
20955;BME280;10636;19.390;-99.256;2023-03-04T01:47:19;77345.75;;;26.92;20.06
20955;BME280;10636;19.390;-99.256;2023-03-04T01:49:53;77359.19;;;26.92;20.09
20955;BME280;10636;19.390;-99.256;2023-03-04T01:52:22;77360.41;;;26.87;20.10
20955;BME280;10636;19.390;-99.256;2023-03-04T01:54:52;77355.56;;;26.79;20.42
20955;BME280;10636;19.390;-99.256;2023-03-04T01:57:27;77367.78;;;26.84;20.36
20955;BME280;10636;19.390;-99.256;2023-03-04T02:00:18;77366.34;;;26.81;20.32
20955;BME280;10636;19.390;-99.256;2023-03-04T02:02:50;77375.00;;;26.77;20.45
20955;BME280;10636;19.390;-99.256;2023-03-04T02:05:20;77362.75;;;26.70;20.42
20955;BME280;10636;19.390;-99.256;2023-03-04T02:07:50;77382.97;;;26.73;20.71
20955;BME280;10636;19.390;-99.256;2023-03-04T02:10:20;77380.91;;;26.70;20.74
20955;BME280;10636;19.390;-99.256;2023-03-04T02:12:49;77389.63;;;26.68;20.81
20955;BME280;10636;19.390;-99.256;2023-03-04T02:15:18;77398.97;;;26.67;20.87
20955;BME280;10636;19.390;-99.256;2023-03-04T02:17:48;77396.25;;;26.65;20.80
20955;BME280;10636;19.390;-99.256;2023-03-04T02:20:29;77407.06;;;26.67;21.03
20955;BME280;10636;19.390;-99.256;2023-03-04T02:23:06;77411.13;;;26.68;21.13
20955;BME280;10636;19.390;-99.256;2023-03-04T02:25:42;77417.88;;;26.69;21.27
20955;BME280;10636;19.390;-99.256;2023-03-04T02:28:14;77425.94;;;26.69;21.12
20955;BME280;10636;19.390;-99.256;2023-03-04T02:30:43;77434.69;;;26.70;21.41
20955;BME280;10636;19.390;-99.256;2023-03-04T02:33:16;77440.75;;;26.70;21.70
20955;BME280;10636;19.390;-99.256;2023-03-04T02:35:46;77441.88;;;26.61;21.76
20955;BME280;10636;19.390;-99.256;2023-03-04T02:38:15;77446.09;;;26.68;21.66
20955;BME280;10636;19.390;-99.256;2023-03-04T02:40:46;77454.78;;;26.67;21.64
20955;BME280;10636;19.390;-99.256;2023-03-04T02:43:17;77455.44;;;26.65;21.59
20955;BME280;10636;19.390;-99.256;2023-03-04T02:45:47;77455.44;;;26.65;21.63
20955;BME280;10636;19.390;-99.256;2023-03-04T02:48:19;77453.28;;;26.59;21.71
20955;BME280;10636;19.390;-99.256;2023-03-04T02:50:51;77464.81;;;26.64;21.72
20955;BME280;10636;19.390;-99.256;2023-03-04T02:53:21;77449.13;;;26.54;21.57
20955;BME280;10636;19.390;-99.256;2023-03-04T02:55:50;77466.88;;;26.66;22.09
20955;BME280;10636;19.390;-99.256;2023-03-04T02:58:21;77471.56;;;26.65;22.09
20955;BME280;10636;19.390;-99.256;2023-03-04T03:00:49;77476.94;;;26.65;22.25
20955;BME280;10636;19.390;-99.256;2023-03-04T03:03:18;77471.56;;;26.65;22.16
20955;BME280;10636;19.390;-99.256;2023-03-04T03:05:47;77475.56;;;26.64;22.23
20955;BME280;10636;19.390;-99.256;2023-03-04T03:08:15;77492.41;;;26.65;22.12
20955;BME280;10636;19.390;-99.256;2023-03-04T03:10:44;77495.13;;;26.67;22.26
20955;BME280;10636;19.390;-99.256;2023-03-04T03:13:12;77503.84;;;26.65;22.19
20955;BME280;10636;19.390;-99.256;2023-03-04T03:15:45;77502.41;;;26.62;22.06
20955;BME280;10636;19.390;-99.256;2023-03-04T03:18:14;77509.19;;;26.63;22.40
20955;BME280;10636;19.390;-99.256;2023-03-04T03:20:42;77513.16;;;26.62;22.62
20955;BME280;10636;19.390;-99.256;2023-03-04T03:23:11;77518.53;;;26.62;22.24
20955;BME280;10636;19.390;-99.256;2023-03-04T03:25:40;77518.50;;;26.60;22.51
20955;BME280;10636;19.390;-99.256;2023-03-04T03:28:08;77500.59;;;26.43;22.62
20955;BME280;10636;19.390;-99.256;2023-03-04T03:30:37;77514.19;;;26.49;22.87
20955;BME280;10636;19.390;-99.256;2023-03-04T03:33:07;77527.81;;;26.57;22.91
20955;BME280;10636;19.390;-99.256;2023-03-04T03:35:36;77534.53;;;26.56;22.65
20955;BME280;10636;19.390;-99.256;2023-03-04T03:38:04;77541.22;;;26.55;22.78
20955;BME280;10636;19.390;-99.256;2023-03-04T03:40:33;77541.91;;;26.55;22.70
20955;BME280;10636;19.390;-99.256;2023-03-04T03:43:02;77557.41;;;26.57;22.93
20955;BME280;10636;19.390;-99.256;2023-03-04T03:45:30;77552.72;;;26.57;22.79
20955;BME280;10636;19.390;-99.256;2023-03-04T03:47:59;77557.41;;;26.57;22.83
20955;BME280;10636;19.390;-99.256;2023-03-04T03:50:29;77558.72;;;26.56;22.76
20955;BME280;10636;19.390;-99.256;2023-03-04T03:52:58;77561.41;;;26.56;22.64
20955;BME280;10636;19.390;-99.256;2023-03-04T03:55:27;77562.75;;;26.55;22.83
20955;BME280;10636;19.390;-99.256;2023-03-04T03:57:56;77562.69;;;26.53;22.62
20955;BME280;10636;19.390;-99.256;2023-03-04T04:00:24;77567.41;;;26.52;22.87
20955;BME280;10636;19.390;-99.256;2023-03-04T04:02:54;77570.69;;;26.51;22.98
20955;BME280;10636;19.390;-99.256;2023-03-04T04:05:23;77576.06;;;26.51;22.87
20955;BME280;10636;19.390;-99.256;2023-03-04T04:07:53;77580.09;;;26.50;23.06
20955;BME280;10636;19.390;-99.256;2023-03-04T04:10:22;77580.72;;;26.48;23.18
20955;BME280;10636;19.390;-99.256;2023-03-04T04:12:50;77578.72;;;26.49;22.96
20955;BME280;10636;19.390;-99.256;2023-03-04T04:15:19;77581.34;;;26.47;23.10
20955;BME280;10636;19.390;-99.256;2023-03-04T04:17:48;77578.66;;;26.47;23.16
20955;BME280;10636;19.390;-99.256;2023-03-04T04:20:16;77578.72;;;26.49;23.73
20955;BME280;10636;19.390;-99.256;2023-03-04T04:22:45;77581.44;;;26.51;23.46
20955;BME280;10636;19.390;-99.256;2023-03-04T04:25:15;77580.09;;;26.50;23.55
20955;BME280;10636;19.390;-99.256;2023-03-04T04:27:44;77576.06;;;26.51;23.65
20955;BME280;10636;19.390;-99.256;2023-03-04T04:30:13;77582.78;;;26.50;23.56
20955;BME280;10636;19.390;-99.256;2023-03-04T04:32:41;77582.78;;;26.50;23.57
20955;BME280;10636;19.390;-99.256;2023-03-04T04:35:10;77584.09;;;26.49;24.05
20955;BME280;10636;19.390;-99.256;2023-03-04T04:37:39;77575.06;;;26.38;23.92
20955;BME280;10636;19.390;-99.256;2023-03-04T04:40:08;77587.44;;;26.47;24.03
20955;BME280;10636;19.390;-99.256;2023-03-04T04:42:39;77594.91;;;26.51;24.17
20955;BME280;10636;19.390;-99.256;2023-03-04T04:45:08;77598.34;;;26.53;23.89
20955;BME280;10636;19.390;-99.256;2023-03-04T04:47:37;77601.03;;;26.53;24.14
20955;BME280;10636;19.390;-99.256;2023-03-04T04:50:06;77592.97;;;26.53;24.05
20955;BME280;10636;19.390;-99.256;2023-03-04T04:52:35;77589.59;;;26.53;23.84
20955;BME280;10636;19.390;-99.256;2023-03-04T04:55:04;77590.97;;;26.54;23.99
20955;BME280;10636;19.390;-99.256;2023-03-04T04:57:33;77589.59;;;26.53;23.99
20955;BME280;10636;19.390;-99.256;2023-03-04T05:00:04;77594.97;;;26.53;24.00
20955;BME280;10636;19.390;-99.256;2023-03-04T05:02:32;77600.34;;;26.53;24.03
20955;BME280;10636;19.390;-99.256;2023-03-04T05:05:02;77601.72;;;26.54;24.08
20955;BME280;10636;19.390;-99.256;2023-03-04T05:07:31;77600.34;;;26.53;24.25
20955;BME280;10636;19.390;-99.256;2023-03-04T05:10:03;77595.66;;;26.53;24.26
20955;BME280;10636;19.390;-99.256;2023-03-04T05:12:32;77596.34;;;26.54;24.14
20955;BME280;10636;19.390;-99.256;2023-03-04T05:15:02;77601.03;;;26.53;24.21
20955;BME280;10636;19.390;-99.256;2023-03-04T05:17:31;77608.47;;;26.55;24.46
20955;BME280;10636;19.390;-99.256;2023-03-04T05:20:00;77600.41;;;26.55;24.38
20955;BME280;10636;19.390;-99.256;2023-03-04T05:22:29;77605.09;;;26.54;24.33
20955;BME280;10636;19.390;-99.256;2023-03-04T05:24:58;77610.47;;;26.54;24.52
20955;BME280;10636;19.390;-99.256;2023-03-04T05:27:26;77607.09;;;26.54;24.38
20955;BME280;10636;19.390;-99.256;2023-03-04T05:29:55;77610.47;;;26.54;24.29
20955;BME280;10636;19.390;-99.256;2023-03-04T05:32:28;77613.84;;;26.55;24.47
20955;BME280;10636;19.390;-99.256;2023-03-04T05:34:56;77609.78;;;26.54;24.32
20955;BME280;10636;19.390;-99.256;2023-03-04T05:37:25;77617.84;;;26.54;24.70
20955;BME280;10636;19.390;-99.256;2023-03-04T05:39:53;77617.84;;;26.54;24.66
20955;BME280;10636;19.390;-99.256;2023-03-04T05:42:22;77611.78;;;26.53;24.56
20955;BME280;10636;19.390;-99.256;2023-03-04T05:44:51;77596.00;;;26.42;24.90
20955;BME280;10636;19.390;-99.256;2023-03-04T05:47:19;77600.34;;;26.53;24.58
20955;BME280;10636;19.390;-99.256;2023-03-04T05:49:49;77604.34;;;26.52;24.83
20955;BME280;10636;19.390;-99.256;2023-03-04T05:52:18;77602.97;;;26.51;24.89
20955;BME280;10636;19.390;-99.256;2023-03-04T05:54:46;77602.34;;;26.52;24.73
20955;BME280;10636;19.390;-99.256;2023-03-04T05:57:15;77607.72;;;26.52;24.95
20955;BME280;10636;19.390;-99.256;2023-03-04T05:59:44;77604.34;;;26.52;24.81
20955;BME280;10636;19.390;-99.256;2023-03-04T06:02:12;77600.28;;;26.51;24.87
20955;BME280;10636;19.390;-99.256;2023-03-04T06:04:41;77601.59;;;26.50;24.75
20955;BME280;10636;19.390;-99.256;2023-03-04T06:07:11;77590.63;;;26.42;25.05
20955;BME280;10636;19.390;-99.256;2023-03-04T06:09:39;77600.22;;;26.49;25.07
20955;BME280;10636;19.390;-99.256;2023-03-04T06:12:10;77600.22;;;26.49;25.16
20955;BME280;10636;19.390;-99.256;2023-03-04T06:14:39;77601.56;;;26.48;25.09
20955;BME280;10636;19.390;-99.256;2023-03-04T06:17:07;77598.88;;;26.48;25.23
20955;BME280;10636;19.390;-99.256;2023-03-04T06:19:36;77600.88;;;26.47;25.16
20955;BME280;10636;19.390;-99.256;2023-03-04T06:22:04;77608.22;;;26.47;25.29
20955;BME280;10636;19.390;-99.256;2023-03-04T06:24:35;77601.50;;;26.46;25.28
20955;BME280;10636;19.390;-99.256;2023-03-04T06:27:04;77596.09;;;26.46;25.50
20955;BME280;10636;19.390;-99.256;2023-03-04T06:29:32;77592.72;;;26.45;25.54
20955;BME280;10636;19.390;-99.256;2023-03-04T06:32:01;77602.81;;;26.45;25.11
20955;BME280;10636;19.390;-99.256;2023-03-04T06:34:29;77600.13;;;26.45;25.35
20955;BME280;10636;19.390;-99.256;2023-03-04T06:36:59;77601.38;;;26.42;25.38
20955;BME280;10636;19.390;-99.256;2023-03-04T06:39:28;77594.06;;;26.44;25.38
20955;BME280;10636;19.390;-99.256;2023-03-04T06:41:58;77589.31;;;26.43;25.47
20955;BME280;10636;19.390;-99.256;2023-03-04T06:44:27;77585.16;;;26.40;25.53
20955;BME280;10636;19.390;-99.256;2023-03-04T06:46:55;77598.59;;;26.40;25.41
20955;BME280;10636;19.390;-99.256;2023-03-04T06:49:24;77587.22;;;26.41;25.53
20955;BME280;10636;19.390;-99.256;2023-03-04T06:51:52;77588.53;;;26.40;25.75
20955;BME280;10636;19.390;-99.256;2023-03-04T06:54:21;77586.53;;;26.41;25.75
20955;BME280;10636;19.390;-99.256;2023-03-04T06:56:50;77582.47;;;26.40;25.47
20955;BME280;10636;19.390;-99.256;2023-03-04T06:59:20;77575.72;;;26.39;25.81
20955;BME280;10636;19.390;-99.256;2023-03-04T07:01:48;77579.75;;;26.38;25.52
20955;BME280;10636;19.390;-99.256;2023-03-04T07:04:17;77574.97;;;26.36;25.64
20955;BME280;10636;19.390;-99.256;2023-03-04T07:06:45;77576.97;;;26.36;25.58
20955;BME280;10636;19.390;-99.256;2023-03-04T07:09:14;77574.94;;;26.34;25.48
20955;BME280;10636;19.390;-99.256;2023-03-04T07:11:43;77567.56;;;26.34;25.66
20955;BME280;10636;19.390;-99.256;2023-03-04T07:14:11;77566.88;;;26.34;25.64
20955;BME280;10636;19.390;-99.256;2023-03-04T07:16:42;77566.19;;;26.33;25.65
20955;BME280;10636;19.390;-99.256;2023-03-04T07:19:10;77562.13;;;26.32;25.85
20955;BME280;10636;19.390;-99.256;2023-03-04T07:21:39;77564.75;;;26.30;25.66
20955;BME280;10636;19.390;-99.256;2023-03-04T07:24:08;77562.00;;;26.28;25.69
20955;BME280;10636;19.390;-99.256;2023-03-04T07:26:36;77562.69;;;26.29;25.68
20955;BME280;10636;19.390;-99.256;2023-03-04T07:29:05;77562.00;;;26.28;25.89
20955;BME280;10636;19.390;-99.256;2023-03-04T07:31:34;77566.72;;;26.28;25.72
20955;BME280;10636;19.390;-99.256;2023-03-04T07:34:06;77557.16;;;26.23;25.87
20955;BME280;10636;19.390;-99.256;2023-03-04T07:36:37;77553.91;;;26.26;25.93
20955;BME280;10636;19.390;-99.256;2023-03-04T07:39:07;77552.50;;;26.25;25.67
20955;BME280;10636;19.390;-99.256;2023-03-04T07:41:36;77545.78;;;26.24;25.68
20955;BME280;10636;19.390;-99.256;2023-03-04T07:44:07;77546.38;;;26.21;25.63
20955;BME280;10636;19.390;-99.256;2023-03-04T07:46:36;77545.72;;;26.22;25.54
20955;BME280;10636;19.390;-99.256;2023-03-04T07:49:06;77549.78;;;26.23;25.87
20955;BME280;10636;19.390;-99.256;2023-03-04T07:51:35;77543.03;;;26.22;25.82
20955;BME280;10636;19.390;-99.256;2023-03-04T07:54:03;77544.41;;;26.23;25.80
20955;BME280;10636;19.390;-99.256;2023-03-04T07:56:33;77547.78;;;26.24;25.80
20955;BME280;10636;19.390;-99.256;2023-03-04T07:59:01;77543.03;;;26.22;26.00
20955;BME280;10636;19.390;-99.256;2023-03-04T08:01:32;77545.72;;;26.22;26.04
20955;BME280;10636;19.390;-99.256;2023-03-04T08:04:01;77536.28;;;26.21;26.04
20955;BME280;10636;19.390;-99.256;2023-03-04T08:06:31;77532.16;;;26.18;26.22
20955;BME280;10636;19.390;-99.256;2023-03-04T08:09:02;77534.22;;;26.20;25.92
20955;BME280;10636;19.390;-99.256;2023-03-04T08:11:31;77540.91;;;26.19;25.94
20955;BME280;10636;19.390;-99.256;2023-03-04T08:14:00;77537.53;;;26.18;26.07
20955;BME280;10636;19.390;-99.256;2023-03-04T08:16:28;77534.81;;;26.16;25.92
20955;BME280;10636;19.390;-99.256;2023-03-04T08:18:59;77533.38;;;26.13;26.17
20955;BME280;10636;19.390;-99.256;2023-03-04T08:21:32;77537.50;;;26.16;25.81
20955;BME280;10636;19.390;-99.256;2023-03-04T08:24:02;77534.81;;;26.16;25.90
20955;BME280;10636;19.390;-99.256;2023-03-04T08:26:35;77532.06;;;26.14;25.88
20955;BME280;10636;19.390;-99.256;2023-03-04T08:29:08;77532.06;;;26.14;26.06
20955;BME280;10636;19.390;-99.256;2023-03-04T08:31:37;77529.31;;;26.12;25.88
20955;BME280;10636;19.390;-99.256;2023-03-04T08:34:06;77531.38;;;26.14;25.90
20955;BME280;10636;19.390;-99.256;2023-03-04T08:36:37;77527.28;;;26.11;26.16
20955;BME280;10636;19.390;-99.256;2023-03-04T08:39:06;77532.66;;;26.11;26.06
20955;BME280;10636;19.390;-99.256;2023-03-04T08:41:34;77534.69;;;26.12;25.99
20955;BME280;10636;19.390;-99.256;2023-03-04T08:44:03;77523.91;;;26.10;26.18
20955;BME280;10636;19.390;-99.256;2023-03-04T08:46:33;77527.97;;;26.11;26.05
20955;BME280;10636;19.390;-99.256;2023-03-04T08:49:02;77528.53;;;26.07;26.14
20955;BME280;10636;19.390;-99.256;2023-03-04T08:51:31;77531.25;;;26.10;26.07
20955;BME280;10636;19.390;-99.256;2023-03-04T08:54:02;77531.91;;;26.08;26.25
20955;BME280;10636;19.390;-99.256;2023-03-04T08:56:32;77533.25;;;26.09;26.16
20955;BME280;10636;19.390;-99.256;2023-03-04T08:59:00;77529.84;;;26.06;25.72
20955;BME280;10636;19.390;-99.256;2023-03-04T09:01:29;77525.78;;;26.05;26.13
20955;BME280;10636;19.390;-99.256;2023-03-04T09:03:57;77531.78;;;26.04;26.07
20955;BME280;10636;19.390;-99.256;2023-03-04T09:06:26;77519.72;;;26.05;26.08
20955;BME280;10636;19.390;-99.256;2023-03-04T09:08:55;77525.72;;;26.03;25.83
20955;BME280;10636;19.390;-99.256;2023-03-04T09:11:25;77521.66;;;26.02;26.11
20955;BME280;10636;19.390;-99.256;2023-03-04T09:13:53;77526.34;;;26.02;26.16
20955;BME280;10636;19.390;-99.256;2023-03-04T09:16:22;77523.00;;;26.01;26.06
20955;BME280;10636;19.390;-99.256;2023-03-04T09:18:51;77518.25;;;26.00;25.97
20955;BME280;10636;19.390;-99.256;2023-03-04T09:21:19;77522.22;;;25.99;26.16
20955;BME280;10636;19.390;-99.256;2023-03-04T09:23:48;77517.50;;;25.97;26.19
20955;BME280;10636;19.390;-99.256;2023-03-04T09:26:20;77519.50;;;25.97;25.88
20955;BME280;10636;19.390;-99.256;2023-03-04T09:28:54;77522.81;;;25.95;25.97
20955;BME280;10636;19.390;-99.256;2023-03-04T09:31:24;77520.13;;;25.95;26.18
20955;BME280;10636;19.390;-99.256;2023-03-04T09:33:53;77518.78;;;25.94;26.10
20955;BME280;10636;19.390;-99.256;2023-03-04T09:36:22;77518.06;;;25.94;25.66
20955;BME280;10636;19.390;-99.256;2023-03-04T09:38:51;77518.06;;;25.94;25.95
20955;BME280;10636;19.390;-99.256;2023-03-04T09:41:22;77529.44;;;25.92;26.02
20955;BME280;10636;19.390;-99.256;2023-03-04T09:43:53;77522.72;;;25.91;25.83
20955;BME280;10636;19.390;-99.256;2023-03-04T09:46:31;77511.03;;;25.83;25.78
20955;BME280;10636;19.390;-99.256;2023-03-04T09:49:00;77515.28;;;25.90;25.80
20955;BME280;10636;19.390;-99.256;2023-03-04T09:51:43;77521.91;;;25.87;25.72
20955;BME280;10636;19.390;-99.256;2023-03-04T09:54:21;77528.59;;;25.86;25.71
20955;BME280;10636;19.390;-99.256;2023-03-04T09:56:57;77506.69;;;25.71;25.79
20955;BME280;10636;19.390;-99.256;2023-03-04T09:59:31;77515.16;;;25.86;25.57
20955;BME280;10636;19.390;-99.256;2023-03-04T10:02:14;77521.78;;;25.83;25.90
20955;BME280;10636;19.390;-99.256;2023-03-04T10:04:48;77520.41;;;25.81;25.52
20955;BME280;10636;19.390;-99.256;2023-03-04T10:07:21;77511.00;;;25.80;25.38
20955;BME280;10636;19.390;-99.256;2023-03-04T10:09:55;77519.06;;;25.80;25.89
20955;BME280;10636;19.390;-99.256;2023-03-04T10:12:29;77521.69;;;25.78;25.68
20955;BME280;10636;19.390;-99.256;2023-03-04T10:15:03;77525.00;;;25.77;25.58
20955;BME280;10636;19.390;-99.256;2023-03-04T10:17:35;77531.03;;;25.77;25.63
20955;BME280;10636;19.390;-99.256;2023-03-04T10:20:08;77529.69;;;25.76;25.47
20955;BME280;10636;19.390;-99.256;2023-03-04T10:22:43;77539.06;;;25.75;25.65
20955;BME280;10636;19.390;-99.256;2023-03-04T10:25:17;77530.94;;;25.73;25.78
20955;BME280;10636;19.390;-99.256;2023-03-04T10:27:50;77532.22;;;25.72;25.21
20955;BME280;10636;19.390;-99.256;2023-03-04T10:30:31;77531.53;;;25.72;25.80
20955;BME280;10636;19.390;-99.256;2023-03-04T10:33:11;77536.84;;;25.70;25.46
20955;BME280;10636;19.390;-99.256;2023-03-04T10:35:42;77534.09;;;25.68;25.49
20955;BME280;10636;19.390;-99.256;2023-03-04T10:38:12;77538.09;;;25.67;25.60
20955;BME280;10636;19.390;-99.256;2023-03-04T10:40:41;77534.69;;;25.64;25.36
20955;BME280;10636;19.390;-99.256;2023-03-04T10:43:18;77544.06;;;25.63;25.29
20955;BME280;10636;19.390;-99.256;2023-03-04T10:45:53;77546.78;;;25.65;25.50
20955;BME280;10636;19.390;-99.256;2023-03-04T10:48:24;77539.38;;;25.64;25.70
20955;BME280;10636;19.390;-99.256;2023-03-04T10:50:53;77538.69;;;25.63;25.28
20955;BME280;10636;19.390;-99.256;2023-03-04T10:53:29;77535.72;;;25.53;25.38
20955;BME280;10636;19.390;-99.256;2023-03-04T10:56:00;77546.00;;;25.61;25.23
20955;BME280;10636;19.390;-99.256;2023-03-04T10:58:29;77546.00;;;25.61;25.43
20955;BME280;10636;19.390;-99.256;2023-03-04T11:01:04;77550.00;;;25.60;25.17
20955;BME280;10636;19.390;-99.256;2023-03-04T11:03:34;77531.53;;;25.48;25.32
20955;BME280;10636;19.390;-99.256;2023-03-04T11:06:08;77556.59;;;25.56;25.70
20955;BME280;10636;19.390;-99.256;2023-03-04T11:08:39;77559.97;;;25.57;25.38
20955;BME280;10636;19.390;-99.256;2023-03-04T11:11:40;77557.25;;;25.55;25.39
20955;BME280;10636;19.390;-99.256;2023-03-04T11:14:16;77563.25;;;25.53;25.47
20955;BME280;10636;19.390;-99.256;2023-03-04T11:16:54;77561.25;;;25.54;25.12
20955;BME280;10636;19.390;-99.256;2023-03-04T11:19:28;77567.25;;;25.52;25.35
20955;BME280;10636;19.390;-99.256;2023-03-04T11:21:58;77571.22;;;25.51;24.94
20955;BME280;10636;19.390;-99.256;2023-03-04T11:24:28;77578.59;;;25.51;25.30
20955;BME280;10636;19.390;-99.256;2023-03-04T11:27:02;77579.91;;;25.50;25.30
20955;BME280;10636;19.390;-99.256;2023-03-04T11:29:37;77587.91;;;25.48;25.44
20955;BME280;10636;19.390;-99.256;2023-03-04T11:32:12;77589.22;;;25.47;25.57
20955;BME280;10636;19.390;-99.256;2023-03-04T11:34:47;77591.91;;;25.47;25.38
20955;BME280;10636;19.390;-99.256;2023-03-04T11:37:21;77588.47;;;25.44;25.40
20955;BME280;10636;19.390;-99.256;2023-03-04T11:39:55;77598.53;;;25.44;25.39
20955;BME280;10636;19.390;-99.256;2023-03-04T11:42:32;77603.22;;;25.43;25.15
20955;BME280;10636;19.390;-99.256;2023-03-04T11:45:10;77607.91;;;25.43;25.73
20955;BME280;10636;19.390;-99.256;2023-03-04T11:47:50;77607.91;;;25.43;25.54
20955;BME280;10636;19.390;-99.256;2023-03-04T11:50:29;77612.44;;;25.38;25.42
20955;BME280;10636;19.390;-99.256;2023-03-04T11:53:23;77610.50;;;25.41;25.23
20955;BME280;10636;19.390;-99.256;2023-03-04T11:56:02;77614.44;;;25.38;25.25
20955;BME280;10636;19.390;-99.256;2023-03-04T11:58:49;77606.41;;;25.38;25.56
20955;BME280;10636;19.390;-99.256;2023-03-04T12:01:27;77604.81;;;25.30;25.43
20955;BME280;10636;19.390;-99.256;2023-03-04T12:04:10;77617.00;;;25.34;25.41
20955;BME280;10636;19.390;-99.256;2023-03-04T12:06:51;77618.38;;;25.35;25.48
20955;BME280;10636;19.390;-99.256;2023-03-04T12:09:37;77615.00;;;25.34;25.51
20955;BME280;10636;19.390;-99.256;2023-03-04T12:12:31;77621.00;;;25.33;25.49
20955;BME280;10636;19.390;-99.256;2023-03-04T12:15:08;77619.69;;;25.34;25.44
20955;BME280;10636;19.390;-99.256;2023-03-04T12:17:52;77611.25;;;25.21;25.45
20955;BME280;10636;19.390;-99.256;2023-03-04T12:20:48;77622.94;;;25.30;25.54
20955;BME280;10636;19.390;-99.256;2023-03-04T12:23:42;77637.03;;;25.30;25.30
20955;BME280;10636;19.390;-99.256;2023-03-04T12:26:24;77633.66;;;25.30;25.27
20955;BME280;10636;19.390;-99.256;2023-03-04T12:29:02;77638.34;;;25.29;25.36
20955;BME280;10636;19.390;-99.256;2023-03-04T12:31:36;77638.28;;;25.27;25.10
20955;BME280;10636;19.390;-99.256;2023-03-04T12:37:18;77643.56;;;25.25;25.80
20955;BME280;10636;19.390;-99.256;2023-03-04T12:40:07;77646.22;;;25.23;25.59
20955;BME280;10636;19.390;-99.256;2023-03-04T12:42:53;77653.56;;;25.23;25.70
20955;BME280;10636;19.390;-99.256;2023-03-04T12:45:27;77657.63;;;25.24;25.43
20955;BME280;10636;19.390;-99.256;2023-03-04T12:48:07;77655.56;;;25.22;25.21
20955;BME280;10636;19.390;-99.256;2023-03-04T12:50:50;77660.94;;;25.22;25.50
20955;BME280;10636;19.390;-99.256;2023-03-04T12:53:27;77670.31;;;25.21;25.79
20955;BME280;10636;19.390;-99.256;2023-03-04T12:55:58;77681.03;;;25.21;25.26
20955;BME280;10636;19.390;-99.256;2023-03-04T12:58:31;77683.66;;;25.19;25.62
20955;BME280;10636;19.390;-99.256;2023-03-04T13:01:05;77682.97;;;25.19;25.52
20955;BME280;10636;19.390;-99.256;2023-03-04T13:03:42;77683.59;;;25.17;25.30